Terminal Aerodrome Forecast
Issued by NWS Wichita, KS

Home | Current Version | Previous Version | Graphics & Text | Print | Product List | Glossary On
Versions: 1 2 3 4 5 6 7 8 9 10 11 12 13 14 15
000
FTUS43 KICT 302300
TAFICT
TAF
KICT 302332Z 0100/0124 17018KT P6SM VCSH SCT080 BKN250
     FM010300 16015KT P6SM VCSH BKN060
     FM011000 17013KT P6SM SCT250
     FM011600 18018G25KT P6SM SCT060=

USA.gov is the U.S. government's official web portal to all federal, state and local government web resources and services.